Terminal Aerodrome Forecast
Issued by NWS Goodland, KS

Home | Current Version | Previous Version | Text Only | Print | Product List | Glossary On
Versions: 1 2 3 4 5 6 7 8 9 10 11 12 13 14
835
FTUS43 KGLD 120524
TAFGLD
TAF
KGLD 120524Z 1206/1306 30009KT P6SM BKN250
     FM121800 07006KT P6SM OVC090
     FM122000 13007KT P6SM OVC015
     FM130100 09008KT 3SM BR OVC007
     FM130300 13009KT 1SM BR OVC004=

USA.gov is the U.S. government's official web portal to all federal, state and local government web resources and services.